Latest Weather Observations for Parawa West

IDS60901

Issued at 7:11 pm CDT Thursday 19 January 2017 (issued every 10 minutes, with the page automatically refreshed every 10 minutes)

About weather observations | Map of Adelaide area stations | Latest observations for Adelaide area | Other Formats
Station Details ID: 023875 Name: SECOND VALLEY FOREST AWS Lat: -35.57 Lon: 138.29 Height: 341.0 m
Data from the previous 72 hours. | See also: Recent months at Parawa West
Date/Time
CDT
Temp
°C
App
Temp
°C
Dew
Point
°C
Rel
Hum
%
Delta-T
°C
Wind Press
QNH
hPa
Press
MSL
hPa
Rain since
9am
mm
Dir  Spd
km/h
Gust
km/h
Spd
kts
Gust
kts
19/07:00pm 28.9 26.4 12.3 36 9.9 ENE 17 20 9 11 998.6 997.5 0.2
19/06:30pm 29.3 27.7 12.7 36 10.0 ENE 13 17 7 9 999.8 998.6 0.2
19/06:00pm 29.8 27.5 11.8 33 10.7 NE 15 24 8 13 1000.0 998.8 0.2
19/05:30pm 31.1 28.2 12.9 32 11.0 ENE 20 28 11 15 1000.1 998.9 0.2
19/05:00pm 30.5 27.1 12.4 33 10.8 ENE 22 28 12 15 1001.1 1000.0 0.2
19/04:30pm 30.6 28.2 12.5 33 10.9 ENE 17 26 9 14 1002.0 1000.8 0.2
19/04:00pm 29.8 27.8 12.7 35 10.2 ENE 15 22 8 12 1003.1 1002.0 0.2
19/03:30pm 29.8 28.4 12.3 34 10.4 ENE 11 19 6 10 1004.2 1003.1 0.2
19/03:00pm 29.7 28.8 12.6 35 10.2 ENE 9 19 5 10 1005.0 1003.8 0.2
19/02:30pm 29.7 29.2 12.6 35 10.2 NE 7 13 4 7 1005.7 1004.6 0.2
19/02:00pm 27.3 26.5 12.9 41 8.6 ENE 9 15 5 8 1006.3 1005.2 0.2
19/01:30pm 23.7 23.0 13.3 52 6.1 NE 9 17 5 9 1006.9 1005.8 0.2
19/01:00pm 20.4 19.5 12.6 61 4.5 NE 9 15 5 8 1007.2 1006.1 0.2
19/12:30pm 19.6 18.3 11.4 59 4.6 NE 9 15 5 8 1007.7 1006.6 0.0
19/12:00pm 19.6 17.6 11.4 59 4.6 ENE 13 20 7 11 1008.2 1007.1 0.0
19/11:30am 19.7 17.6 9.6 52 5.5 NE 11 17 6 9 1008.7 1007.6 0.0
19/11:00am 19.3 16.2 8.9 51 5.5 ENE 15 20 8 11 1009.2 1008.1 0.0
19/10:30am 19.3 17.3 8.6 50 5.7 NE 9 15 5 8 1010.0 1008.9 0.0
19/10:00am 19.2 16.8 8.8 51 5.5 NE 11 19 6 10 1010.2 1009.1 0.0
19/09:30am 18.8 16.4 8.5 51 5.4 ENE 11 17 6 9 1010.2 1009.1 0.0
19/09:00am 17.6 14.7 8.2 54 4.9 NE 13 22 7 12 1010.3 1009.2 0.0
19/08:30am 17.7 13.1 8.0 53 5.0 ENE 22 30 12 16 1010.2 1009.1 0.0
19/08:00am 17.4 11.9 7.7 53 5.0 ENE 26 32 14 17 1010.6 1009.6 0.0
19/07:30am 15.9 10.4 7.7 58 4.2 ENE 26 35 14 19 1010.6 1009.6 0.0
19/07:00am 15.3 11.4 8.5 64 3.5 E 19 28 10 15 1010.8 1009.8 0.0
19/06:30am 14.1 10.6 8.7 70 2.8 E 17 20 9 11 1011.2 1010.1 0.0
19/06:00am 13.8 9.3 8.6 71 2.7 E 22 30 12 16 1010.7 1009.7 0.0
19/05:30am 13.7 9.8 8.5 71 2.7 E 19 22 10 12 1010.8 1009.8 0.0
19/05:00am 13.8 10.6 9.8 77 2.1 ESE 17 24 9 13 1011.2 1010.1 0.0
19/04:30am 14.0 10.5 10.2 78 2.0 ESE 19 24 10 13 1011.5 1010.4 0.0
19/04:00am 14.2 10.9 10.8 80 1.8 ESE 19 26 10 14 1011.5 1010.4 0.0
19/03:30am 14.1 10.3 11.3 83 1.5 ESE 22 28 12 15 1011.8 1010.7 0.0
19/03:00am 14.3 11.3 12.0 86 1.3 ESE 19 24 10 13 1012.2 1011.1 0.0
19/02:30am 14.4 11.4 12.4 88 1.1 SE 20 32 11 17 1012.5 1011.4 0.0
19/02:00am 14.4 10.7 12.8 90 0.9 SE 24 32 13 17 1012.9 1011.8 0.0
19/01:30am 14.4 10.7 12.8 90 0.9 SE 24 32 13 17 1013.3 1012.3 0.0
19/01:00am 14.4 10.4 13.0 91 0.8 SE 26 32 14 17 1013.5 1012.5 0.0
19/12:30am 14.4 10.0 12.8 90 0.9 SE 28 37 15 20 1014.0 1013.0 0.0
19/12:00am 14.3 9.4 12.7 90 0.9 SE 30 37 16 20 1014.4 1013.3 0.0
 
Date/Time
CDT
Temp
°C
App
Temp
°C
Dew
Point
°C
Rel
Hum
%
Delta-T
°C
Wind Press
QNH
hPa
Press
MSL
hPa
Rain since
9am
mm
Dir  Spd
km/h
Gust
km/h
Spd
kts
Gust
kts
18/11:30pm 14.1 9.5 12.3 89 1.0 SE 28 35 15 19 1014.7 1013.6 0.0
18/11:00pm 14.1 9.2 12.5 90 0.9 SE 30 37 16 20 1014.7 1013.6 0.0
18/10:30pm 14.1 8.7 12.1 88 1.1 SE 32 39 17 21 1014.8 1013.7 0.0
18/10:00pm 14.1 9.1 12.1 88 1.1 SE 30 39 16 21 1014.9 1013.8 0.0
18/09:30pm 13.9 9.1 11.6 86 1.2 SE 28 35 15 19 1014.9 1013.8 0.0
18/09:00pm 13.9 8.1 10.7 81 1.7 SE 32 41 17 22 1014.8 1013.7 0.0
18/08:30pm 14.1 8.3 10.7 80 1.8 SE 32 43 17 23 1014.9 1013.8 0.0
18/08:00pm 14.5 8.7 10.7 78 2.0 SE 32 43 17 23 1014.9 1013.8 0.0
18/07:30pm 14.7 8.4 11.1 79 1.9 SSE 35 44 19 24 1014.8 1013.7 0.0
18/07:00pm 14.8 8.9 11.2 79 2.0 SE 33 44 18 24 1014.3 1013.2 0.0
18/06:30pm 15.2 8.8 10.8 75 2.4 SE 35 46 19 25 1014.2 1013.1 0.0
18/06:00pm 15.2 9.0 11.4 78 2.1 SE 35 44 19 24 1014.3 1013.2 0.0
18/05:30pm 15.5 9.1 10.7 73 2.6 SE 35 44 19 24 1014.6 1013.5 0.0
18/05:00pm 15.8 9.7 10.6 71 2.8 SE 33 44 18 24 1014.8 1013.7 0.0
18/04:30pm 15.8 9.8 10.8 72 2.7 SE 33 43 18 23 1015.4 1014.3 0.0
18/04:00pm 15.8 9.5 11.0 73 2.6 SE 35 46 19 25 1015.4 1014.3 0.0
18/03:30pm 15.8 10.1 11.8 77 2.2 SE 33 43 18 23 1015.6 1014.5 0.0
18/03:00pm 17.1 11.5 12.0 72 2.8 SE 33 46 18 25 1015.6 1014.5 0.0
18/02:30pm 16.7 10.9 11.6 72 2.8 SE 33 43 18 23 1015.7 1014.7 0.0
18/02:00pm 16.6 11.0 12.0 74 2.6 SE 33 44 18 24 1015.7 1014.7 0.0
18/01:30pm 16.1 10.0 11.7 75 2.4 SE 35 48 19 26 1016.2 1015.2 0.0
18/01:00pm 15.9 9.3 11.5 75 2.4 SE 37 46 20 25 1016.4 1015.4 0.0
18/12:30pm 16.3 9.7 11.5 73 2.6 SE 37 50 20 27 1016.4 1015.4 0.0
18/12:00pm 16.3 10.6 11.0 71 2.9 SE 32 44 17 24 1016.4 1015.4 0.0
18/11:30am 16.3 10.6 11.0 71 2.9 SE 32 43 17 23 1016.7 1015.7 0.0
18/11:00am 15.9 10.2 11.7 76 2.3 SE 33 43 18 23 1016.4 1015.4 0.0
18/10:30am 16.4 11.6 11.6 73 2.6 SE 28 37 15 20 1017.4 1016.3 0.0
18/10:00am 15.9 9.3 11.3 74 2.5 SE 37 52 20 28 1016.2 1015.2 0.0
18/09:30am 15.3 9.0 11.1 76 2.3 SE 35 48 19 26 1016.4 1015.4 0.0
18/09:00am 15.1 8.9 11.3 78 2.1 SE 35 46 19 25 1016.5 1015.5 0.0
18/08:30am 14.4 8.3 11.7 84 1.5 SE 35 46 19 25 1015.7 1014.7 0.0
18/08:16am 14.4 8.8 11.6 83 1.5 SE 32 52 17 28 1015.7 1014.7 0.0
18/08:00am 14.2 8.4 11.4 83 1.5 SE 33 43 18 23 1015.8 1014.8 0.0
18/07:30am 13.9 7.3 11.2 84 1.5 SE 37 50 20 27 1015.0 1013.9 0.0
18/07:00am 13.7 6.6 10.9 83 1.5 SSE 39 52 21 28 1014.9 1013.8 0.0
18/06:30am 13.5 7.3 11.4 87 1.1 SSE 35 50 19 27 1014.3 1013.2 0.0
18/06:00am 13.4 6.5 11.6 89 1.0 SSE 39 50 21 27 1013.7 1012.7 0.0
18/05:30am 13.7 8.3 12.8 94 0.5 SSE 33 44 18 24 1013.2 1012.2 0.0
18/05:00am 13.9 8.2 13.0 94 0.5 SSE 35 46 19 25 1012.7 1011.6 0.0
18/04:30am 14.0 8.0 13.4 96 0.3 SSE 37 46 20 25 1011.8 1010.7 0.0
18/04:00am 14.6 9.8 14.1 97 0.3 SSE 32 41 17 22 1011.7 1010.6 0.0
18/03:30am 14.7 10.0 14.4 98 0.2 SSE 32 43 17 23 1011.6 1010.5 0.0
18/03:00am 15.2 10.5 14.2 94 0.6 SSE 32 41 17 22 1011.8 1010.7 0.0
18/02:30am 15.3 10.6 14.3 94 0.6 SSE 32 43 17 23 1011.8 1010.7 0.0
18/02:00am 15.3 10.6 14.2 93 0.6 SSE 32 41 17 22 1011.8 1010.7 0.0
18/01:30am 15.6 11.3 14.5 93 0.6 SSE 30 39 16 21 1012.3 1011.2 0.0
18/01:00am 15.7 11.0 14.2 91 0.9 SSE 32 41 17 22 1012.2 1011.1 0.0
18/12:30am 15.8 11.2 14.7 93 0.6 SSE 32 39 17 21 1012.2 1011.1 0.0
18/12:00am 15.7 11.2 14.9 95 0.5 SSE 32 43 17 23 1012.6 1011.5 0.0
 
Date/Time
CDT
Temp
°C
App
Temp
°C
Dew
Point
°C
Rel
Hum
%
Delta-T
°C
Wind Press
QNH
hPa
Press
MSL
hPa
Rain since
9am
mm
Dir  Spd
km/h
Gust
km/h
Spd
kts
Gust
kts
17/11:30pm 15.7 11.4 15.4 98 0.2 SSE 32 44 17 24 1012.7 1011.6 0.0
17/11:00pm 15.6 10.7 15.3 98 0.2 SE 35 43 19 23 1012.5 1011.4 0.0
17/10:30pm 15.8 11.3 15.5 98 0.2 SE 33 44 18 24 1012.2 1011.1 0.0
17/10:00pm 15.7 11.1 15.2 97 0.3 SE 33 43 18 23 1012.1 1011.0 0.0
17/09:30pm 15.9 10.6 15.4 97 0.3 SSE 37 52 20 28 1011.9 1010.8 0.0
17/09:00pm 16.0 9.5 15.2 95 0.5 SSE 43 56 23 30 1012.1 1011.0 0.0
17/08:30pm 16.6 9.3 15.5 93 0.7 S 48 63 26 34 1012.1 1011.0 0.0
17/08:00pm 17.2 11.1 16.2 94 0.6 S 43 52 23 28 1011.9 1010.8 0.0
17/07:30pm 17.7 12.5 16.6 93 0.7 S 39 54 21 29 1011.3 1010.2 0.0
17/07:00pm 19.4 14.1 16.4 83 1.8 S 39 50 21 27 1010.5 1009.5 0.0
17/06:30pm 21.1 17.4 16.1 73 3.1 S 30 43 16 23 1009.8 1008.7 0.0
17/06:00pm 23.6 21.2 17.3 67 4.0 S 26 33 14 18 1009.0 1007.9 0.0
17/05:30pm 26.4 23.8 13.9 46 7.5 SSE 20 28 11 15 1008.3 1007.2 0.0
17/05:25pm 27.9 25.9 13.8 42 8.5 SSE 17 28 9 15 1008.3 1007.2 0.0
17/05:00pm 33.0 29.2 9.7 24 13.5 W 20 37 11 20 1008.2 1007.1 0.0
17/04:30pm 34.1 28.2 1.8 13 16.6 W 22 33 12 18 1007.8 1006.7 0.0
17/04:00pm 34.4 28.8 0.9 12 17.0 W 20 33 11 18 1007.8 1006.7 0.0
17/03:30pm 34.5 28.7 2.1 13 16.8 W 22 35 12 19 1007.9 1006.9 0.0
17/03:00pm 34.3 28.8 4.0 15 16.2 WNW 22 32 12 17 1008.1 1007.0 0.0
17/02:30pm 34.6 29.7 4.2 15 16.3 NW 19 30 10 16 1008.2 1007.1 0.0
17/02:00pm 32.2 28.2 4.9 18 14.6 NW 15 24 8 13 1008.5 1007.4 0.0
17/01:30pm 32.5 28.3 5.9 19 14.5 NW 17 24 9 13 1008.6 1007.5 0.0
17/01:00pm 32.8 29.5 6.2 19 14.6 NW 13 26 7 14 1008.9 1007.8 0.0
17/12:30pm 32.0 28.5 5.5 19 14.3 NW 13 20 7 11 1009.2 1008.1 0.0
17/12:00pm 31.4 26.5 4.2 18 14.3 NW 19 26 10 14 1009.3 1008.2 0.0
17/11:30am 31.4 27.6 5.8 20 13.8 NW 15 26 8 14 1009.4 1008.3 0.0
17/11:00am 30.5 27.8 5.7 21 13.3 NNW 9 17 5 9 1009.5 1008.4 0.0
17/10:30am 29.0 26.7 7.6 26 11.8 NW 9 15 5 8 1009.4 1008.3 0.0
17/10:00am 28.1 25.3 6.8 26 11.5 NW 11 19 6 10 1009.4 1008.3 0.0
17/09:30am 27.8 25.5 7.6 28 11.0 NW 9 17 5 9 1009.3 1008.2 0.0
17/09:00am 27.0 25.3 7.5 29 10.6 NW 6 13 3 7 1009.2 1008.1 0.0
17/08:30am 25.5 24.6 10.5 39 8.5 NW 6 7 3 4 1009.3 1008.2 0.0
17/08:00am 24.4 22.7 7.5 34 9.0 NW 6 9 3 5 1009.3 1008.2 0.0
17/07:30am 23.5 21.6 6.7 34 8.8 N 6 9 3 5 1009.2 1008.1 0.0
17/07:00am 23.7 22.9 6.5 33 9.0 CALM 0 0 0 0 1009.1 1008.0 0.0
17/06:30am 23.1 21.6 5.1 31 9.2 NNE 2 4 1 2 1008.9 1007.8 0.0
17/06:00am 23.1 21.9 4.6 30 9.3 CALM 0 0 0 0 1008.8 1007.7 0.0
17/05:30am 23.0 21.7 4.0 29 9.5 CALM 0 0 0 0 1008.6 1007.5 0.0
17/05:00am 23.0 21.7 4.0 29 9.4 CALM 0 0 0 0 1008.5 1007.4 0.0
17/04:30am 23.0 21.9 5.0 31 9.1 CALM 0 0 0 0 1008.6 1007.5 0.0
17/04:00am 23.5 22.3 4.5 29 9.6 CALM 0 4 0 2 1008.7 1007.6 0.0
17/03:30am 24.1 22.9 4.5 28 9.9 CALM 0 0 0 0 1009.0 1007.9 0.0
17/03:00am 23.4 22.3 4.9 30 9.4 CALM 0 0 0 0 1009.3 1008.2 0.0
17/02:30am 24.3 22.4 5.1 29 9.8 NE 4 7 2 4 1009.4 1008.3 0.0
17/02:00am 22.8 20.6 5.3 32 8.9 NNE 6 7 3 4 1009.8 1008.7 0.0
17/01:30am 24.1 22.9 4.5 28 9.9 CALM 0 6 0 3 1010.0 1008.9 0.0
17/01:00am 25.1 23.7 3.7 25 10.7 CALM 0 0 0 0 1010.2 1009.1 0.0
17/12:30am 25.0 23.6 3.6 25 10.7 CALM 0 0 0 0 1010.4 1009.3 0.0
17/12:00am 24.9 23.7 4.6 27 10.3 CALM 0 2 0 1 1010.6 1009.6 0.0
 
Date/Time
CDT
Temp
°C
App
Temp
°C
Dew
Point
°C
Rel
Hum
%
Delta-T
°C
Wind Press
QNH
hPa
Press
MSL
hPa
Rain since
9am
mm
Dir  Spd
km/h
Gust
km/h
Spd
kts
Gust
kts
16/11:30pm 26.1 24.1 4.6 25 11.0 NNE 4 6 2 3 1010.9 1009.9 0.0
16/11:00pm 26.8 24.8 4.6 24 11.4 NW 4 6 2 3 1011.1 1010.0 0.0
16/10:30pm 26.8 24.8 4.6 24 11.4 NW 4 6 2 3 1011.3 1010.2 0.0
16/10:00pm 27.0 25.7 4.1 23 11.7 CALM 0 0 0 0 1011.5 1010.4 0.0
16/09:30pm 27.0 25.7 4.1 23 11.7 CALM 0 0 0 0 1011.4 1010.3 0.0
16/09:00pm 26.7 25.5 4.5 24 11.4 CALM 0 0 0 0 1011.3 1010.2 0.0
16/08:30pm 26.9 25.8 5.2 25 11.3 CALM 0 0 0 0 1011.2 1010.1 0.0
16/08:00pm 27.2 26.3 6.0 26 11.2 CALM 0 2 0 1 1011.1 1010.0 0.0
16/07:30pm 28.8 27.4 7.4 26 11.7 NW 4 6 2 3 1010.9 1009.9 0.0

Latest Capital City Observations: Canberra | Sydney | Melbourne | Brisbane | Adelaide | Perth | Hobart | Darwin

Other Formats:

Comma delimited format used in spreadsheet applications
http://www.bom.gov.au/fwo/IDS60901/IDS60901.94811.axf

JavaScript Object Notation format (JSON) in row-major order
http://www.bom.gov.au/fwo/IDS60901/IDS60901.94811.json